Rebriha, Russia
Current Conditions -  °F | °C
As of 12:30 AM on Saturday 20 Dec 2014 (Local Time) from UNBB Reporting Station
Haze Haze  
Wind Chill:   Ceiling: Unl
Heat Index:   Visibility: 1.3mi
Dew Point: -6°   Wind: 0mph
Humidity: 78%   Direction: NA
Pressure: 30.56"   Gusts: NA
Location:  53.08°N, 82.33°E
Report Text: UNBB 191730Z 00000MPS 2100 BR SCT010 M18/M21 Q1035 NOSIG RMKQFE753/1005 24420357
Loading
Personal Weather Stations






























Interactive Weather Map New forecast layout! Learn more

10-Day Weather Forecast

Advertisements
Track Severe Weather on mobile